Flight Track Log - Related Links

Times and Time Zones

All times are in EDT time to prevent confusion due to time zone crossing. See the JBU1083 flight status page for this flight to view local times or setup timezone preferences in your user account.

Time Position Orientation Groundspeed Altitude Reporting Facility
EDT Latitude Longitude Course Direction KTS MPH feet Rate Location/Type
Sat 08:39:35 PM 40.6440 -73.7770 73° East 9 10  Level FlightAware ADS-B
Sat 08:39:58 PM 40.6440 -73.7780 270° West 9 10 78 Level FlightAware ADS-B
Sat 08:42:00 PM 40.4726 -73.8833 180° South  Level FlightAware Approximate
Sat 08:43:00 PM 40.4037 -73.9463 217° Southwest  Level FlightAware Approximate
Sat 08:44:00 PM 40.3246 -74.0066 210° Southwest  Level FlightAware Approximate
Sat 08:45:00 PM 40.2445 -74.0648 207° Southwest  Level FlightAware Approximate
Sat 08:45:03 PM 40.6440 -73.7770 207° Southwest 18 21  Level FlightAware ADS-B
Sat 08:45:46 PM 40.6430 -73.7760 143° Southeast 20 23 129 Level FlightAware ADS-B
Sat 08:46:12 PM 40.6420 -73.7760 180° South 26 30 140 Level FlightAware ADS-B
Sat 08:46:42 PM 40.6410 -73.7750 143° Southeast 9 10 149 Level FlightAware ADS-B
Sat 08:47:22 PM 40.6410 -73.7740 90° East 17 20 159 Level FlightAware ADS-B
Sat 08:47:30 PM 40.6400 -73.7740 180° South 15 17 176 Level FlightAware ADS-B
Sat 08:48:18 PM 40.6400 -73.7750 270° West 14 16 180 Level FlightAware ADS-B
Sat 08:49:04 PM 40.6390 -73.7760 217° Southwest 19 22 208 Level FlightAware ADS-B
Sat 08:49:44 PM 40.6370 -73.7770 201° Southwest 27 31 243 Level FlightAware ADS-B
Sat 08:50:11 PM 40.6360 -73.7780 217° Southwest 22 25 284 Level FlightAware ADS-B
Sat 08:50:47 PM 40.6340 -73.7790 201° Southwest 29 33 322 Level FlightAware ADS-B
Sat 08:51:00 PM 40.6340 -73.7800 270° West 28 32 391 Level FlightAware ADS-B
Sat 08:51:16 PM 40.6340 -73.7810 270° West 29 33 423 Level FlightAware ADS-B
Sat 08:51:44 PM 40.6340 -73.7820 270° West 16 18 471 Level FlightAware ADS-B
Sat 08:52:11 PM 40.6330 -73.7830 217° Southwest 20 23 589 Level FlightAware ADS-B
Sat 08:52:40 PM 40.6340 -73.7850 303° West 50 58 776 Level FlightAware ADS-B
Sat 08:53:07 PM 40.6420 -73.8020 302° West 160 184 1,179 Level FlightAware ADS-B
Sat 08:53:36 PM 40.6520 -73.8270 298° West 161 185 1,100 2,195 Climbing FlightAware ADS-B
Sat 08:53:48 PM 40.6520 -73.8390 270° West 164 189 1,500 1,714 Climbing FlightAware ADS-B
Sat 08:54:04 PM 40.6450 -73.8540 238° Southwest 188 216 1,900 1,227 Climbing FlightAware ADS-B
Sat 08:54:32 PM 40.6270 -73.8790 227° Southwest 224 258 2,400 1,607 Climbing FlightAware ADS-B
Sat 08:55:00 PM 40.6020 -73.9030 216° Southwest 250 288 3,400 2,423 Climbing FlightAware ADS-B
Sat 08:55:24 PM 40.5760 -73.9220 209° Southwest 261 300 4,500 2,750 Climbing FlightAware ADS-B
Sat 08:55:48 PM 40.5520 -73.9430 214° Southwest 272 313 5,600 2,880 Climbing FlightAware ADS-B
Sat 08:56:14 PM 40.5230 -73.9670 212° Southwest 280 322 6,900 2,914 Climbing FlightAware ADS-B
Sat 08:56:23 PM 40.5135 -73.9753 214° Southwest 282 325 7,300 3,231 Climbing FlightAware ADS-B
Sat 08:56:40 PM 40.4941 -73.9915 212° Southwest 278 320 8,300 3,563 Climbing FlightAware ADS-B
Sat 08:56:55 PM 40.4774 -74.0052 212° Southwest 276 318 9,200 3,097 Climbing FlightAware ADS-B
Sat 08:57:11 PM 40.4608 -74.0188 212° Southwest 277 319 9,900 2,182 Climbing FlightAware ADS-B
Sat 08:57:28 PM 40.4415 -74.0346 212° Southwest 291 335 10,400 1,448 Climbing FlightAware ADS-B
Sat 08:57:40 PM 40.4272 -74.0442 207° Southwest 307 353 10,600 1,000 Climbing FlightAware ADS-B
Sat 08:58:10 PM 40.3843 -74.0660 201° Southwest 340 391 11,100 1,377 Climbing FlightAware ADS-B
Sat 08:58:41 PM 40.3370 -74.0894 201° Southwest 357 411 12,000 2,169 Climbing FlightAware ADS-B
Sat 08:59:33 PM 40.2573 -74.1286 201° Southwest 355 409 14,100 2,122 Climbing FlightAware ADS-B
Sat 09:00:03 PM 40.2094 -74.1523 201° Southwest 373 429 14,900 1,700 Climbing FlightAware ADS-B
Sat 09:00:33 PM 40.1598 -74.1768 201° Southwest 379 436 15,800 1,953 Climbing FlightAware ADS-B
Sat 09:00:46 PM 40.1399 -74.1899 207° Southwest 376 433 16,300 2,000 Climbing FlightAware ADS-B
Sat 09:00:57 PM 40.1247 -74.2047 217° Southwest 376 433 16,600 2,040 Climbing FlightAware ADS-B
Sat 09:01:36 PM 40.0740 -74.2631 221° Southwest 375 432 18,000 1,808 Climbing FlightAware ADS-B
Sat 09:02:10 PM 40.0287 -74.3151 221° Southwest 386 444 18,800 1,590 Climbing FlightAware ADS-B
Sat 09:02:59 PM 39.9624 -74.3887 220° Southwest 391 450 20,200 1,551 Climbing FlightAware ADS-B
Sat 09:03:39 PM 39.9058 -74.4510 220° Southwest 401 461 21,100 1,352 Climbing FlightAware ADS-B
Sat 09:04:10 PM 39.8625 -74.4986 220° Southwest 404 465 21,800 1,475 Climbing FlightAware ADS-B
Sat 09:04:40 PM 39.8194 -74.5461 220° Southwest 404 465 22,600 1,500 Climbing FlightAware ADS-B
Sat 09:05:10 PM 39.7766 -74.5933 220° Southwest 409 471 23,300 1,400 Climbing FlightAware ADS-B
Sat 09:05:40 PM 39.7331 -74.6411 220° Southwest 410 472 24,000 1,377 Climbing FlightAware ADS-B
Sat 09:06:11 PM 39.6870 -74.6914 220° Southwest 414 476 24,700 1,258 Climbing FlightAware ADS-B
Sat 09:06:42 PM 39.6428 -74.7399 220° Southwest 416 479 25,300 1,180 Climbing FlightAware ADS-B
Sat 09:07:12 PM 39.5999 -74.7868 220° Southwest 419 482 25,900 1,100 Climbing FlightAware ADS-B
Sat 09:07:42 PM 39.5533 -74.8376 220° Southwest 423 487 26,400 984 Climbing FlightAware ADS-B
Sat 09:08:13 PM 39.5060 -74.8891 220° Southwest 429 494 26,900 871 Climbing FlightAware ADS-B
Sat 09:08:44 PM 39.4597 -74.9394 220° Southwest 434 499 27,300 885 Climbing FlightAware ADS-B
Sat 09:09:14 PM 39.4134 -74.9896 220° Southwest 439 505 27,800 984 Climbing FlightAware ADS-B
Sat 09:09:45 PM 39.3644 -75.0427 220° Southwest 443 510 28,300 1,043 Climbing FlightAware ADS-B
Sat 09:10:00 PM 39.3404 -75.0680 219° Southwest 445 512 28,600 1,000 Climbing FlightAware ADS-B
Sat 09:10:15 PM 39.3145 -75.0916 215° Southwest 446 513 28,800 857 Climbing FlightAware ADS-B
Sat 09:10:35 PM 39.2790 -75.1193 211° Southwest 449 517 29,100 923 Climbing FlightAware ADS-B
Sat 09:10:54 PM 39.2443 -75.1426 207° Southwest 452 520 29,400 1,080 Climbing FlightAware ADS-B
Sat 09:11:25 PM 39.1862 -75.1778 205° Southwest 451 519 30,000 1,048 Climbing FlightAware ADS-B
Sat 09:11:57 PM 39.1246 -75.2161 206° Southwest 454 522 30,500 957 Climbing FlightAware ADS-B
Sat 09:12:34 PM 39.0549 -75.2582 205° Southwest 455 524 31,100 985 Climbing FlightAware ADS-B
Sat 09:13:04 PM 38.9979 -75.2922 205° Southwest 455 524 31,600 984 Climbing FlightAware ADS-B
Sat 09:13:35 PM 38.9388 -75.3272 205° Southwest 456 525 32,100 968 Climbing FlightAware ADS-B
Sat 09:14:06 PM 38.8788 -75.3627 205° Southwest 459 528 32,600 1,065 Climbing FlightAware ADS-B
Sat 09:14:37 PM 38.8190 -75.3981 205° Southwest 456 525 33,200 1,065 Climbing FlightAware ADS-B
Sat 09:15:08 PM 38.7603 -75.4328 205° Southwest 456 525 33,700 968 Climbing FlightAware ADS-B
Sat 09:15:39 PM 38.7005 -75.4681 205° Southwest 457 526 34,200 871 Climbing FlightAware ADS-B
Sat 09:16:10 PM 38.6411 -75.5031 205° Southwest 458 527 34,600 885 Climbing FlightAware ADS-B
Sat 09:16:40 PM 38.5828 -75.5373 205° Southwest 457 526 35,100 900 Climbing FlightAware ADS-B
Sat 09:17:10 PM 38.5251 -75.5711 205° Southwest 457 526 35,500 787 Climbing FlightAware ADS-B
Sat 09:17:41 PM 38.4673 -75.6050 205° Southwest 458 527 35,900 492 Climbing FlightAware ADS-B
Sat 09:18:11 PM 38.4084 -75.6395 205° Southwest 459 528 36,000 98 Climbing FlightAware ADS-B
Sat 09:18:42 PM 38.3475 -75.6750 205° Southwest 465 535 36,000  Level FlightAware ADS-B
Sat 09:19:13 PM 38.2868 -75.7105 205° Southwest 468 539 36,000  Level FlightAware ADS-B
Sat 09:19:46 PM 38.2227 -75.7477 205° Southwest 468 539 36,000  Level FlightAware ADS-B
Sat 09:20:16 PM 38.1638 -75.7818 204° Southwest 465 535 36,000  Level FlightAware ADS-B
Sat 09:20:46 PM 38.1042 -75.8163 204° Southwest 464 534 36,000  Level FlightAware ADS-B
Sat 09:21:17 PM 38.0451 -75.8504 204° Southwest 464 534 36,000  Level FlightAware ADS-B
Sat 09:21:48 PM 37.9844 -75.8854 204° Southwest 463 533 36,000  Level FlightAware ADS-B
Sat 09:22:30 PM 37.9029 -75.9323 204° Southwest 463 533 36,000  Level FlightAware ADS-B
Sat 09:23:01 PM 37.8414 -75.9678 205° Southwest 463 533 36,000  Level FlightAware ADS-B
Sat 09:23:32 PM 37.7823 -76.0016 204° Southwest 463 533 36,000  Level FlightAware ADS-B
Sat 09:24:02 PM 37.7228 -76.0357 204° Southwest 464 534 36,000  Level FlightAware ADS-B
Sat 09:24:33 PM 37.6620 -76.0705 204° Southwest 464 534 36,000  Level FlightAware ADS-B
Sat 09:25:06 PM 37.5980 -76.1070 204° Southwest 464 534 36,000  Level FlightAware ADS-B
Sat 09:25:47 PM 37.5170 -76.1532 204° Southwest 465 535 36,000  Level FlightAware ADS-B
Sat 09:26:26 PM 37.4415 -76.1960 204° Southwest 464 534 36,000  Level FlightAware ADS-B
Sat 09:26:59 PM 37.3780 -76.2320 204° Southwest 464 534 36,000  Level FlightAware ADS-B
Sat 09:27:29 PM 37.3175 -76.2662 204° Southwest 464 534 36,000  Level FlightAware ADS-B
Sat 09:28:00 PM 37.2583 -76.2996 204° Southwest 463 533 36,000  Level FlightAware ADS-B
Sat 09:28:30 PM 37.1988 -76.3332 204° Southwest 463 533 36,000  Level FlightAware ADS-B
Sat 09:29:01 PM 37.1397 -76.3664 204° Southwest 462 532 36,000  Level FlightAware ADS-B
Sat 09:29:31 PM 37.0799 -76.4001 204° Southwest 461 531 36,000  Level FlightAware ADS-B
Sat 09:30:01 PM 37.0216 -76.4327 204° Southwest 461 531 36,000  Level FlightAware ADS-B
Sat 09:30:35 PM 36.9553 -76.4699 204° Southwest 461 531 36,000  Level FlightAware ADS-B
Sat 09:31:06 PM 36.8959 -76.5031 204° Southwest 461 531 36,000  Level FlightAware ADS-B
Sat 09:31:42 PM 36.8270 -76.5420 204° Southwest 461 531 36,000  Level FlightAware ADS-B
Sat 09:31:58 PM 36.7942 -76.5597 203° Southwest 461 531 36,000  Level FlightAware ADS-B
Sat 09:32:28 PM 36.7357 -76.5923 204° Southwest 461 531 36,000  Level FlightAware ADS-B
Sat 09:33:02 PM 36.6700 -76.6290 204° Southwest 460 529 36,000  Level FlightAware ADS-B
Sat 09:33:38 PM 36.5994 -76.6680 204° Southwest 459 528 36,000  Level FlightAware ADS-B
Sat 09:34:23 PM 36.5150 -76.7140 204° Southwest 458 527 36,000  Level FlightAware ADS-B
Sat 09:35:13 PM 36.4150 -76.7550 198° South 459 528 36,000  Level FlightAware ADS-B
Sat 09:35:53 PM 36.3400 -76.7850 198° South 458 527 36,000  Level FlightAware ADS-B
Sat 09:36:29 PM 36.2780 -76.8080 197° South 458 527 36,000  Level FlightAware ADS-B
Sat 09:37:25 PM 36.1570 -76.8590 199° South 459 528 36,000  Level FlightAware ADS-B
Sat 09:38:09 PM 36.0650 -76.8960 198° South 459 528 36,000  Level FlightAware ADS-B
Sat 09:39:06 PM 35.9630 -76.9370 198° South 454 522 36,000  Level FlightAware ADS-B
Sat 09:39:44 PM 35.8980 -76.9630 198° South 454 522 36,000  Level FlightAware ADS-B
Sat 09:40:25 PM 35.7810 -77.0090 198° South 464 534 36,000  Level FlightAware ADS-B
Sat 09:41:15 PM 35.6940 -77.0410 197° South 464 534 36,000  Level FlightAware ADS-B
Sat 09:42:17 PM 35.5850 -77.0820 197° South 464 534 36,000  Level FlightAware ADS-B
Sat 09:42:51 PM 35.5260 -77.1040 197° South 464 534 36,000  Level FlightAware ADS-B
Sat 09:43:39 PM 35.4420 -77.1360 197° South 464 534 36,000  Level FlightAware ADS-B
Sat 09:44:25 PM 35.3620 -77.1660 197° South 464 534 36,000  Level FlightAware ADS-B
Sat 09:45:13 PM 35.2780 -77.1970 197° South 464 534 36,000  Level FlightAware ADS-B
Sat 09:45:49 PM 35.2160 -77.2210 198° South 464 534 36,000  Level FlightAware ADS-B
Sat 09:46:50 PM 35.1090 -77.2610 197° South 464 534 36,000  Level FlightAware ADS-B
Sat 09:47:26 PM 35.0460 -77.2840 197° South 464 534 36,000  Level FlightAware ADS-B
Sat 09:48:14 PM 34.9620 -77.3150 197° South 464 534 36,000  Level FlightAware ADS-B
Sat 09:48:50 PM 34.9000 -77.3390 198° South 464 534 36,000  Level FlightAware ADS-B
Sat 09:49:28 PM 34.8330 -77.3640 197° South 464 534 36,000  Level FlightAware ADS-B
Sat 09:50:04 PM 34.7710 -77.3870 197° South 464 534 36,000  Level FlightAware ADS-B
Sat 09:54:46 PM 34.0120 -77.6930 198° South 463 533 36,000  Level FlightAware ADS-B
Sat 09:55:24 PM 33.9380 -77.7210 197° South 463 533 36,000  Level FlightAware ADS-B
Sat 09:56:09 PM 33.8480 -77.7550 197° South 464 534 36,000  Level FlightAware ADS-B
Sat 09:56:49 PM 33.7640 -77.7860 197° South 465 535 36,000  Level FlightAware ADS-B
Sat 09:57:34 PM 33.6780 -77.8230 200° South 462 532 36,000  Level FlightAware ADS-B
Sat 09:58:12 PM 33.6150 -77.8550 203° Southwest 462 532 36,000  Level FlightAware ADS-B
Sat 09:59:12 PM 33.4880 -77.9200 203° Southwest 466 536 36,000  Level FlightAware ADS-B
Sat 09:59:56 PM 33.3990 -77.9660 203° Southwest 465 535 36,000  Level FlightAware ADS-B
Sat 10:01:24 PM 33.2510 -78.0410 203° Southwest 465 535 36,000  Level FlightAware ADS-B
Sat 10:02:04 PM 33.1340 -78.1000 203° Southwest 465 535 36,000  Level FlightAware ADS-B
Sat 10:02:41 PM 33.0770 -78.1290 203° Southwest 465 535 36,000  Level FlightAware ADS-B
Sat 10:03:29 PM 32.9690 -78.1830 203° Southwest 463 533 36,000  Level FlightAware ADS-B
Sat 10:04:09 PM 32.8900 -78.2220 203° Southwest 464 534 36,000  Level FlightAware ADS-B
Sat 10:04:49 PM 32.8080 -78.2630 203° Southwest 464 534 36,000  Level FlightAware ADS-B
Sat 10:05:29 PM 32.7300 -78.3030 203° Southwest 464 534 36,000  Level FlightAware ADS-B
Sat 10:06:09 PM 32.6490 -78.3430 203° Southwest 465 535 36,000  Level FlightAware ADS-B
Sat 10:06:44 PM 32.5800 -78.3770 203° Southwest 465 535 36,000  Level FlightAware ADS-B
Sat 10:07:24 PM 32.5020 -78.4160 203° Southwest 466 536 36,000  Level FlightAware ADS-B
Sat 10:08:09 PM 32.4100 -78.4620 203° Southwest 468 539 36,000  Level FlightAware ADS-B
Sat 10:08:39 PM 32.3510 -78.4910 203° Southwest 468 539 36,000  Level FlightAware ADS-B
Sat 10:09:24 PM 32.2600 -78.5360 203° Southwest 469 540 36,000  Level FlightAware ADS-B
Sat 10:10:04 PM 32.1830 -78.5740 203° Southwest 470 541 36,000  Level FlightAware ADS-B
Sat 10:11:13 PM 32.1190 -78.6050 202° Southwest 470 541 36,000  Level FlightAware ADS-B
Sat 10:11:54 PM 31.9660 -78.6810 203° Southwest 470 541 36,000  Level FlightAware ADS-B
Sat 10:12:37 PM 31.8830 -78.7210 202° Southwest 471 542 36,000  Level FlightAware ADS-B
Sat 10:13:41 PM 31.9000 -78.7130 22° Northeast 471 542 36,000  Level FlightAware ADS-B
Sat 10:14:29 PM 31.6600 -78.8300 203° Southwest 472 543 36,000  Level FlightAware ADS-B
Sat 10:15:05 PM 31.5980 -78.8590 202° Southwest 472 543 36,000  Level FlightAware ADS-B
Sat 10:15:41 PM 31.5360 -78.8890 202° Southwest 472 543 36,000  Level FlightAware ADS-B
Sat 10:16:25 PM 31.4240 -78.9440 203° Southwest 475 547 36,000  Level FlightAware ADS-B
Sat 10:17:01 PM 31.3550 -78.9780 203° Southwest 475 547 36,000  Level FlightAware ADS-B
Sat 10:17:43 PM 31.2570 -79.0250 202° Southwest 475 547 36,000  Level FlightAware ADS-B
Sat 10:18:41 PM 31.1490 -79.0770 202° Southwest 475 547 36,000  Level FlightAware ADS-B
Sat 10:19:17 PM 31.0860 -79.1070 202° Southwest 475 547 36,000  Level FlightAware ADS-B
Sat 10:20:05 PM 31.0030 -79.1460 202° Southwest 475 547 36,000  Level FlightAware ADS-B
Sat 10:20:41 PM 30.9410 -79.1750 202° Southwest 475 547 36,000  Level FlightAware ADS-B
Sat 10:21:30 PM 30.8560 -79.2150 202° Southwest 475 547 36,000  Level FlightAware ADS-B
Sat 10:22:06 PM 30.7940 -79.2440 202° Southwest 475 547 36,000  Level FlightAware ADS-B
Sat 10:22:44 PM 30.7280 -79.2750 202° Southwest 475 547 36,000  Level FlightAware ADS-B
Sat 10:23:21 PM 30.6640 -79.3050 202° Southwest 475 547 36,000  Level FlightAware ADS-B
Sat 10:24:10 PM 30.5790 -79.3450 202° Southwest 475 547 36,000  Level FlightAware ADS-B
Sat 10:24:46 PM 30.5160 -79.3750 202° Southwest 475 547 36,000  Level FlightAware ADS-B
Sat 10:25:22 PM 30.4540 -79.4040 202° Southwest 475 547 36,000  Level FlightAware ADS-B
Sat 10:26:10 PM 30.3710 -79.4430 202° Southwest 475 547 36,000  Level FlightAware ADS-B
Sat 10:26:46 PM 30.3090 -79.4720 202° Southwest 475 547 36,000  Level FlightAware ADS-B
Sat 10:27:35 PM 30.2240 -79.5120 202° Southwest 475 547 36,000  Level FlightAware ADS-B
Sat 10:28:06 PM 30.0014 -79.6225 202° Southwest 479 551 36,000  Level Miami Center
Sat 10:29:04 PM 29.8772 -79.6814 202° Southwest 479 551 36,000 -1,095 Level Miami Center
Sat 10:34:46 PM 29.1720 -80.0070 202° Southwest 487 560 28,700 -1,055 Descending FlightAware ADS-B
Sat 10:35:59 PM 29.0410 -80.0640 201° Southwest 487 560 28,700 -4,667 Level FlightAware ADS-B
Sat 10:36:34 PM 28.9430 -80.1310 211° Southwest 468 539 20,300 -6,146 Descending FlightAware ADS-B
Sat 10:37:21 PM 28.8810 -80.1990 224° Southwest 468 539 20,300  Level FlightAware ADS-B
Sat 10:37:58 PM 28.8320 -80.2530 224° Southwest 468 539 20,300 -5,382 Level FlightAware ADS-B
Sat 10:38:29 PM 28.8450 -80.3800 277° West 460 529 14,200 -5,493 Descending FlightAware ADS-B
Sat 10:39:09 PM 28.8260 -80.4620 255° West 428 493 13,800 -282 Descending FlightAware ADS-B
Sat 10:39:54 PM 28.8110 -80.5690 261° West 433 498 13,800 -282 Level FlightAware ADS-B
Sat 10:40:34 PM 28.7980 -80.6510 260° West 431 496 13,400 -2,480 Descending FlightAware ADS-B
Sat 10:41:09 PM 28.7880 -80.7300 262° West 421 484 10,700 -3,323 Descending FlightAware ADS-B
Sat 10:41:39 PM 28.7770 -80.8020 260° West 420 483 9,800 -900 Descending FlightAware ADS-B
Sat 10:42:09 PM 28.7700 -80.8580 262° West 417 480 9,800  Level FlightAware ADS-B
Sat 10:42:29 PM 28.7630 -80.9090 261° West 401 461 9,800  Level FlightAware ADS-B
Sat 10:42:54 PM 28.7570 -80.9600 262° West 364 419 9,800  Level FlightAware ADS-B
Sat 10:43:24 PM 28.7520 -81.0070 263° West 330 380 9,800 -429 Level FlightAware ADS-B
Sat 10:43:50 PM 28.7460 -81.0550 262° West 308 354 9,400 -1,067 Descending FlightAware ADS-B
Sat 10:44:09 PM 28.7430 -81.0860 264° West 293 337 9,000 -955 Descending FlightAware ADS-B
Sat 10:44:34 PM 28.7390 -81.1180 262° West 276 318 8,700 -873 Descending FlightAware ADS-B
Sat 10:45:04 PM 28.7350 -81.1590 264° West 255 293 8,200 -1,286 Descending FlightAware ADS-B
Sat 10:45:30 PM 28.7310 -81.1950 263° West 251 289 7,500 -1,680 Descending FlightAware ADS-B
Sat 10:45:54 PM 28.7280 -81.2290 264° West 245 282 6,800 -1,222 Descending FlightAware ADS-B
Sat 10:46:24 PM 28.7250 -81.2670 265° West 227 261 6,400 -700 Descending FlightAware ADS-B
Sat 10:46:54 PM 28.7160 -81.2950 250° West 182 209 6,100 -1,067 Descending FlightAware ADS-B
Sat 10:47:09 PM 28.7040 -81.3010 204° Southwest 179 206 5,600 -1,867 Descending FlightAware ADS-B
Sat 10:47:39 PM 28.6790 -81.3060 190° South 168 193 4,700 -1,636 Descending FlightAware ADS-B
Sat 10:48:04 PM 28.6600 -81.3100 190° South 166 191 4,100 -1,527 Descending FlightAware ADS-B
Sat 10:48:34 PM 28.6370 -81.3150 191° South 162 186 3,300 -1,560 Descending FlightAware ADS-B
Sat 10:48:54 PM 28.6210 -81.3180 189° South 168 193 2,800 -1,071 Descending FlightAware ADS-B
Sat 10:49:30 PM 28.5940 -81.3210 186° South 163 188 2,300 -652 Descending FlightAware ADS-B
Sat 10:49:40 PM 28.5860 -81.3210 180° South 164 189 2,300  Level FlightAware ADS-B
Sat 10:50:10 PM 28.5630 -81.3220 182° South 165 190 2,300 100 Level FlightAware ADS-B
Sat 10:50:40 PM 28.5410 -81.3240 185° South 163 188 2,400 -240 Climbing FlightAware ADS-B
Sat 10:51:00 PM 28.5250 -81.3240 180° South 163 188 2,100 -1,292 Descending FlightAware ADS-B
Sat 10:51:45 PM 28.4930 -81.3230 178° South 150 173 1,000 -1,280 Descending FlightAware ADS-B
Sat 10:52:15 PM 28.4740 -81.3230 180° South 128 147 500 -964 Descending FlightAware ADS-B
Sat 10:52:41 PM 28.4560 -81.3220 177° South 129 148 100 -923 Descending FlightAware ADS-B
Sat 10:53:25 PM 28.4330 -81.3220 180° South 37 43 -136 Descending FlightAware ADS-B
Sat 10:53:40 PM 28.4320 -81.3210 139° Southeast 19 22  Level FlightAware ADS-B
Sat 10:53:56 PM 28.4310 -81.3200 139° Southeast 16 18  Level FlightAware ADS-B
Sat 10:54:20 PM 28.4320 -81.3180 60° Northeast 15 17  Level FlightAware ADS-B
Sat 10:54:30 PM 28.4330 -81.3180 360° North 16 18  Level FlightAware ADS-B
Sat 10:54:40 PM 28.4340 -81.3180 360° North 17 20  Level FlightAware ADS-B
Sat 10:55:10 PM 28.4350 -81.3170 41° Northeast 12 14  Level FlightAware ADS-B

Login

Don't have an account? Register now (free) for customized features, flight alerts, and more!